sensor_id;sensor_type;location;lat;lon;timestamp;pressure;altitude;pressure_sealevel;temperature;humidity
34237;BME280;20501;45.956;13.632;2023-02-03T00:01:46;101490.28;;;9.56;55.38
34237;BME280;20501;45.956;13.632;2023-02-03T00:04:11;101495.69;;;9.43;54.49
34237;BME280;20501;45.956;13.632;2023-02-03T00:06:37;101487.88;;;9.14;54.08
34237;BME280;20501;45.956;13.632;2023-02-03T00:09:03;101491.63;;;8.73;55.04
34237;BME280;20501;45.956;13.632;2023-02-03T00:11:29;101502.69;;;9.96;53.88
34237;BME280;20501;45.956;13.632;2023-02-03T00:13:55;101500.66;;;9.87;54.40
34237;BME280;20501;45.956;13.632;2023-02-03T00:16:20;101497.50;;;6.23;60.89
34237;BME280;20501;45.956;13.632;2023-02-03T00:18:46;101495.59;;;5.77;66.07
34237;BME280;20501;45.956;13.632;2023-02-03T00:21:11;101490.91;;;7.74;61.04
34237;BME280;20501;45.956;13.632;2023-02-03T00:23:42;101494.50;;;7.75;56.32
34237;BME280;20501;45.956;13.632;2023-02-03T00:26:14;101505.09;;;8.86;57.73
34237;BME280;20501;45.956;13.632;2023-02-03T00:28:39;101505.59;;;9.56;55.29
34237;BME280;20501;45.956;13.632;2023-02-03T00:31:05;101507.97;;;8.02;59.38
34237;BME280;20501;45.956;13.632;2023-02-03T00:33:30;101514.38;;;9.84;54.24
34237;BME280;20501;45.956;13.632;2023-02-03T00:35:58;101521.19;;;9.13;55.19
34237;BME280;20501;45.956;13.632;2023-02-03T00:38:26;101509.28;;;8.64;52.37
34237;BME280;20501;45.956;13.632;2023-02-03T00:40:52;101510.16;;;7.68;57.13
34237;BME280;20501;45.956;13.632;2023-02-03T00:43:18;101518.13;;;8.66;57.77
34237;BME280;20501;45.956;13.632;2023-02-03T00:45:44;101508.16;;;7.99;58.24
34237;BME280;20501;45.956;13.632;2023-02-03T00:48:09;101521.28;;;8.86;56.69
34237;BME280;20501;45.956;13.632;2023-02-03T00:50:35;101523.13;;;7.62;57.90
34237;BME280;20501;45.956;13.632;2023-02-03T00:53:00;101524.63;;;9.16;56.15
34237;BME280;20501;45.956;13.632;2023-02-03T00:55:26;101527.22;;;8.51;53.25
34237;BME280;20501;45.956;13.632;2023-02-03T00:57:51;101548.22;;;6.11;60.15
34237;BME280;20501;45.956;13.632;2023-02-03T01:00:18;101556.06;;;5.33;63.48
34237;BME280;20501;45.956;13.632;2023-02-03T01:02:43;101553.00;;;7.57;61.08
34237;BME280;20501;45.956;13.632;2023-02-03T01:05:09;101557.41;;;5.57;63.75
34237;BME280;20501;45.956;13.632;2023-02-03T01:07:35;101557.91;;;6.46;63.13
34237;BME280;20501;45.956;13.632;2023-02-03T01:10:01;101550.09;;;8.31;58.46
34237;BME280;20501;45.956;13.632;2023-02-03T01:12:30;101543.81;;;9.63;54.31
34237;BME280;20501;45.956;13.632;2023-02-03T01:14:56;101550.28;;;9.60;54.12
34237;BME280;20501;45.956;13.632;2023-02-03T01:17:22;101559.50;;;10.19;53.01
34237;BME280;20501;45.956;13.632;2023-02-03T01:19:49;101559.41;;;5.20;64.08
34237;BME280;20501;45.956;13.632;2023-02-03T01:22:15;101564.81;;;6.80;57.13
34237;BME280;20501;45.956;13.632;2023-02-03T01:24:41;101561.81;;;6.40;63.26
34237;BME280;20501;45.956;13.632;2023-02-03T01:27:06;101545.53;;;7.48;56.11
34237;BME280;20501;45.956;13.632;2023-02-03T01:29:32;101544.28;;;8.37;55.91
34237;BME280;20501;45.956;13.632;2023-02-03T01:31:57;101554.25;;;9.67;53.64
34237;BME280;20501;45.956;13.632;2023-02-03T01:34:23;101543.06;;;9.48;54.59
34237;BME280;20501;45.956;13.632;2023-02-03T01:36:48;101544.94;;;8.41;52.63
34237;BME280;20501;45.956;13.632;2023-02-03T01:39:13;101543.81;;;7.88;57.54
34237;BME280;20501;45.956;13.632;2023-02-03T01:41:40;101548.00;;;8.49;56.47
34237;BME280;20501;45.956;13.632;2023-02-03T01:44:35;101559.09;;;9.62;53.82
34237;BME280;20501;45.956;13.632;2023-02-03T01:47:03;101561.19;;;8.12;55.42
34237;BME280;20501;45.956;13.632;2023-02-03T01:49:34;101558.53;;;9.83;52.95
34237;BME280;20501;45.956;13.632;2023-02-03T01:52:01;101548.97;;;7.21;59.46
34237;BME280;20501;45.956;13.632;2023-02-03T01:54:30;101548.03;;;9.02;52.40
34237;BME280;20501;45.956;13.632;2023-02-03T01:57:02;101546.38;;;9.64;53.33
34237;BME280;20501;45.956;13.632;2023-02-03T01:59:30;101535.03;;;7.57;54.30
34237;BME280;20501;45.956;13.632;2023-02-03T02:01:58;101545.81;;;8.41;57.47
34237;BME280;20501;45.956;13.632;2023-02-03T02:04:33;101545.00;;;9.20;55.06
34237;BME280;20501;45.956;13.632;2023-02-03T02:07:01;101541.19;;;7.74;54.53
34237;BME280;20501;45.956;13.632;2023-02-03T02:09:26;101542.66;;;6.91;60.02
34237;BME280;20501;45.956;13.632;2023-02-03T02:11:52;101532.38;;;6.69;57.90
34237;BME280;20501;45.956;13.632;2023-02-03T02:14:18;101530.34;;;8.30;53.82
34237;BME280;20501;45.956;13.632;2023-02-03T02:16:54;101533.47;;;8.92;55.27
34237;BME280;20501;45.956;13.632;2023-02-03T02:34:17;101524.41;;;7.27;59.80
34237;BME280;20501;45.956;13.632;2023-02-03T02:36:42;101523.13;;;8.98;55.18
34237;BME280;20501;45.956;13.632;2023-02-03T02:39:37;101517.56;;;9.52;53.20
34237;BME280;20501;45.956;13.632;2023-02-03T02:42:10;101528.31;;;7.36;57.55
34237;BME280;20501;45.956;13.632;2023-02-03T02:44:42;101537.91;;;7.25;60.23
34237;BME280;20501;45.956;13.632;2023-02-03T02:47:17;101541.53;;;9.43;53.91
34237;BME280;20501;45.956;13.632;2023-02-03T02:49:53;101541.03;;;9.00;54.48
34237;BME280;20501;45.956;13.632;2023-02-03T02:52:21;101528.59;;;9.62;52.76
34237;BME280;20501;45.956;13.632;2023-02-03T02:54:51;101535.88;;;7.00;54.88
34237;BME280;20501;45.956;13.632;2023-02-03T02:57:19;101519.78;;;7.29;56.76
34237;BME280;20501;45.956;13.632;2023-02-03T02:59:46;101520.75;;;7.13;56.34
34237;BME280;20501;45.956;13.632;2023-02-03T03:02:12;101534.31;;;5.55;57.92
34237;BME280;20501;45.956;13.632;2023-02-03T03:04:38;101542.50;;;7.81;58.87
34237;BME280;20501;45.956;13.632;2023-02-03T03:07:13;101537.09;;;6.80;55.34
34237;BME280;20501;45.956;13.632;2023-02-03T03:09:46;101528.66;;;6.25;59.94
34237;BME280;20501;45.956;13.632;2023-02-03T03:12:16;101530.38;;;7.88;58.58
34237;BME280;20501;45.956;13.632;2023-02-03T03:14:48;101532.84;;;8.33;55.25
34237;BME280;20501;45.956;13.632;2023-02-03T03:17:29;101546.84;;;6.04;64.12
34237;BME280;20501;45.956;13.632;2023-02-03T03:20:01;101542.38;;;7.97;56.07
34237;BME280;20501;45.956;13.632;2023-02-03T03:22:32;101566.53;;;6.51;57.84
34237;BME280;20501;45.956;13.632;2023-02-03T03:25:04;101568.06;;;7.16;60.46
34237;BME280;20501;45.956;13.632;2023-02-03T03:27:36;101557.97;;;6.44;55.58
34237;BME280;20501;45.956;13.632;2023-02-03T03:30:28;101552.59;;;7.05;60.29
34237;BME280;20501;45.956;13.632;2023-02-03T03:32:51;101559.34;;;7.70;57.92
34237;BME280;20501;45.956;13.632;2023-02-03T03:35:17;101550.50;;;9.05;54.27
34237;BME280;20501;45.956;13.632;2023-02-03T03:37:50;101558.28;;;9.10;54.00
34237;BME280;20501;45.956;13.632;2023-02-03T03:43:37;101564.84;;;8.11;56.88
34237;BME280;20501;45.956;13.632;2023-02-03T03:45:48;101572.94;;;3.72;62.74
34237;BME280;20501;45.956;13.632;2023-02-03T03:50:59;101578.91;;;6.38;62.71
34237;BME280;20501;45.956;13.632;2023-02-03T03:53:28;101582.31;;;4.00;69.04
34237;BME280;20501;45.956;13.632;2023-02-03T03:55:59;101582.72;;;7.10;60.83
34237;BME280;20501;45.956;13.632;2023-02-03T03:58:28;101584.63;;;7.53;54.89
34237;BME280;20501;45.956;13.632;2023-02-03T04:00:57;101584.97;;;7.47;58.23
34237;BME280;20501;45.956;13.632;2023-02-03T04:03:27;101586.00;;;4.16;62.84
34237;BME280;20501;45.956;13.632;2023-02-03T04:05:54;101599.81;;;8.25;56.59
34237;BME280;20501;45.956;13.632;2023-02-03T04:08:20;101596.06;;;8.28;53.21
34237;BME280;20501;45.956;13.632;2023-02-03T04:10:45;101603.06;;;8.30;56.11
34237;BME280;20501;45.956;13.632;2023-02-03T04:13:11;101601.41;;;9.36;53.23
34237;BME280;20501;45.956;13.632;2023-02-03T04:15:37;101604.56;;;6.11;53.91
34237;BME280;20501;45.956;13.632;2023-02-03T04:18:03;101601.75;;;6.91;54.08
34237;BME280;20501;45.956;13.632;2023-02-03T04:20:30;101593.72;;;5.97;59.20
34237;BME280;20501;45.956;13.632;2023-02-03T04:22:56;101600.91;;;8.08;57.25
34237;BME280;20501;45.956;13.632;2023-02-03T04:25:22;101602.34;;;6.19;59.20
34237;BME280;20501;45.956;13.632;2023-02-03T04:27:47;101609.03;;;8.90;54.44
34237;BME280;20501;45.956;13.632;2023-02-03T04:30:13;101601.69;;;8.37;52.19
34237;BME280;20501;45.956;13.632;2023-02-03T04:32:39;101602.31;;;8.56;54.82
34237;BME280;20501;45.956;13.632;2023-02-03T04:35:05;101610.06;;;9.54;52.73
34237;BME280;20501;45.956;13.632;2023-02-03T04:37:32;101614.13;;;7.10;52.99
34237;BME280;20501;45.956;13.632;2023-02-03T04:39:58;101616.66;;;9.50;52.71
34237;BME280;20501;45.956;13.632;2023-02-03T04:42:24;101608.94;;;9.95;51.04
34237;BME280;20501;45.956;13.632;2023-02-03T04:44:50;101620.75;;;9.68;51.56
34237;BME280;20501;45.956;13.632;2023-02-03T04:47:16;101626.19;;;9.15;51.28
34237;BME280;20501;45.956;13.632;2023-02-03T04:49:41;101629.75;;;7.03;55.57
34237;BME280;20501;45.956;13.632;2023-02-03T04:52:07;101624.91;;;8.11;56.81
34237;BME280;20501;45.956;13.632;2023-02-03T04:54:33;101632.03;;;9.22;53.02
34237;BME280;20501;45.956;13.632;2023-02-03T04:56:58;101637.75;;;6.89;58.10
34237;BME280;20501;45.956;13.632;2023-02-03T04:59:24;101625.94;;;6.45;59.54
34237;BME280;20501;45.956;13.632;2023-02-03T05:01:49;101626.63;;;8.27;55.86
34237;BME280;20501;45.956;13.632;2023-02-03T05:04:15;101638.75;;;7.02;58.61
34237;BME280;20501;45.956;13.632;2023-02-03T05:06:40;101638.72;;;9.16;53.52
34237;BME280;20501;45.956;13.632;2023-02-03T05:09:06;101635.94;;;9.43;52.56
34237;BME280;20501;45.956;13.632;2023-02-03T05:11:31;101636.06;;;8.89;54.23
34237;BME280;20501;45.956;13.632;2023-02-03T05:13:57;101636.16;;;9.79;51.74
34237;BME280;20501;45.956;13.632;2023-02-03T05:16:22;101625.13;;;9.95;51.03
34237;BME280;20501;45.956;13.632;2023-02-03T05:18:48;101616.19;;;9.95;51.07
34237;BME280;20501;45.956;13.632;2023-02-03T05:21:14;101616.91;;;10.10;50.41
34237;BME280;20501;45.956;13.632;2023-02-03T05:23:39;101624.66;;;8.98;53.90
34237;BME280;20501;45.956;13.632;2023-02-03T05:26:05;101617.81;;;9.45;52.56
34237;BME280;20501;45.956;13.632;2023-02-03T05:28:30;101615.19;;;9.05;51.06
34237;BME280;20501;45.956;13.632;2023-02-03T05:30:59;101617.28;;;9.53;51.92
34237;BME280;20501;45.956;13.632;2023-02-03T05:33:26;101630.09;;;10.01;50.88
34237;BME280;20501;45.956;13.632;2023-02-03T05:35:51;101627.22;;;9.40;51.73
34237;BME280;20501;45.956;13.632;2023-02-03T05:38:17;101629.91;;;9.27;52.08
34237;BME280;20501;45.956;13.632;2023-02-03T05:40:42;101633.47;;;9.53;51.98
34237;BME280;20501;45.956;13.632;2023-02-03T05:43:27;101635.94;;;9.18;53.00
34237;BME280;20501;45.956;13.632;2023-02-03T05:45:53;101656.19;;;5.65;62.46
34237;BME280;20501;45.956;13.632;2023-02-03T05:48:18;101657.72;;;8.03;56.72
34237;BME280;20501;45.956;13.632;2023-02-03T05:50:43;101661.16;;;8.05;51.75
34237;BME280;20501;45.956;13.632;2023-02-03T05:53:09;101660.19;;;7.63;53.62
34237;BME280;20501;45.956;13.632;2023-02-03T05:55:35;101634.59;;;9.10;53.51
34237;BME280;20501;45.956;13.632;2023-02-03T05:58:02;101644.16;;;8.19;51.75
34237;BME280;20501;45.956;13.632;2023-02-03T06:00:28;101643.75;;;8.26;55.78
34237;BME280;20501;45.956;13.632;2023-02-03T06:02:57;101652.50;;;7.86;53.51
34237;BME280;20501;45.956;13.632;2023-02-03T06:05:24;101664.41;;;7.53;57.12
34237;BME280;20501;45.956;13.632;2023-02-03T06:07:50;101659.94;;;8.67;54.32
34237;BME280;20501;45.956;13.632;2023-02-03T06:10:16;101671.53;;;7.68;53.52
34237;BME280;20501;45.956;13.632;2023-02-03T06:12:42;101672.78;;;8.20;53.17
34237;BME280;20501;45.956;13.632;2023-02-03T06:15:08;101663.66;;;9.33;52.88
34237;BME280;20501;45.956;13.632;2023-02-03T06:17:34;101659.69;;;8.71;52.96
34237;BME280;20501;45.956;13.632;2023-02-03T06:20:07;101665.94;;;8.29;53.18
34237;BME280;20501;45.956;13.632;2023-02-03T06:22:33;101678.56;;;7.26;58.30
34237;BME280;20501;45.956;13.632;2023-02-03T06:24:58;101689.47;;;6.92;56.46
34237;BME280;20501;45.956;13.632;2023-02-03T06:27:24;101701.19;;;6.59;61.00
34237;BME280;20501;45.956;13.632;2023-02-03T06:29:49;101696.34;;;4.77;63.17
34237;BME280;20501;45.956;13.632;2023-02-03T06:32:15;101701.38;;;3.48;68.60
34237;BME280;20501;45.956;13.632;2023-02-03T06:34:40;101712.63;;;4.92;65.73
34237;BME280;20501;45.956;13.632;2023-02-03T06:37:06;101713.31;;;6.34;59.30
34237;BME280;20501;45.956;13.632;2023-02-03T06:39:31;101710.41;;;8.64;55.87
34237;BME280;20501;45.956;13.632;2023-02-03T06:41:57;101717.94;;;8.73;55.61
34237;BME280;20501;45.956;13.632;2023-02-03T06:44:22;101717.56;;;8.92;54.72
34237;BME280;20501;45.956;13.632;2023-02-03T06:46:48;101722.19;;;7.15;56.04
34237;BME280;20501;45.956;13.632;2023-02-03T06:49:15;101720.47;;;8.47;56.03
34237;BME280;20501;45.956;13.632;2023-02-03T06:51:41;101718.78;;;6.49;58.32
34237;BME280;20501;45.956;13.632;2023-02-03T06:54:07;101741.41;;;6.93;58.97
34237;BME280;20501;45.956;13.632;2023-02-03T06:56:32;101751.34;;;6.91;57.19
34237;BME280;20501;45.956;13.632;2023-02-03T06:58:58;101758.31;;;8.01;57.84
34237;BME280;20501;45.956;13.632;2023-02-03T07:01:24;101752.41;;;8.95;54.60
34237;BME280;20501;45.956;13.632;2023-02-03T07:03:50;101748.44;;;8.30;55.20
34237;BME280;20501;45.956;13.632;2023-02-03T07:06:16;101749.34;;;8.87;54.44
34237;BME280;20501;45.956;13.632;2023-02-03T07:08:42;101742.66;;;9.48;52.82
34237;BME280;20501;45.956;13.632;2023-02-03T07:11:07;101731.56;;;9.65;52.17
34237;BME280;20501;45.956;13.632;2023-02-03T07:13:33;101723.22;;;9.42;52.96
34237;BME280;20501;45.956;13.632;2023-02-03T07:15:58;101728.22;;;9.74;51.90
34237;BME280;20501;45.956;13.632;2023-02-03T07:18:24;101721.88;;;9.63;52.14
34237;BME280;20501;45.956;13.632;2023-02-03T07:20:51;101730.75;;;8.55;54.68
34237;BME280;20501;45.956;13.632;2023-02-03T07:23:19;101728.84;;;9.39;53.56
34237;BME280;20501;45.956;13.632;2023-02-03T07:25:44;101740.53;;;10.04;51.23
34237;BME280;20501;45.956;13.632;2023-02-03T07:28:10;101741.19;;;9.82;51.41
34237;BME280;20501;45.956;13.632;2023-02-03T07:30:36;101730.66;;;9.39;50.24
34237;BME280;20501;45.956;13.632;2023-02-03T07:33:01;101736.50;;;9.45;52.54
34237;BME280;20501;45.956;13.632;2023-02-03T07:35:27;101736.31;;;9.62;52.19
34237;BME280;20501;45.956;13.632;2023-02-03T07:37:52;101738.06;;;9.88;51.61
34237;BME280;20501;45.956;13.632;2023-02-03T07:40:18;101732.66;;;9.50;52.38
34237;BME280;20501;45.956;13.632;2023-02-03T07:42:46;101712.47;;;9.81;51.98
34237;BME280;20501;45.956;13.632;2023-02-03T07:45:14;101706.00;;;9.58;49.82
34237;BME280;20501;45.956;13.632;2023-02-03T07:47:40;101698.81;;;8.34;53.30
34237;BME280;20501;45.956;13.632;2023-02-03T07:50:06;101696.03;;;8.50;53.14
34237;BME280;20501;45.956;13.632;2023-02-03T07:52:32;101699.78;;;8.04;54.92
34237;BME280;20501;45.956;13.632;2023-02-03T07:54:57;101692.22;;;7.97;55.65
34237;BME280;20501;45.956;13.632;2023-02-03T07:57:23;101678.81;;;8.53;54.54
34237;BME280;20501;45.956;13.632;2023-02-03T07:59:48;101683.66;;;9.95;51.85
34237;BME280;20501;45.956;13.632;2023-02-03T08:02:14;101675.38;;;10.35;50.72
34237;BME280;20501;45.956;13.632;2023-02-03T08:04:39;101681.72;;;10.60;49.88
34237;BME280;20501;45.956;13.632;2023-02-03T08:07:05;101680.41;;;10.90;49.21
34237;BME280;20501;45.956;13.632;2023-02-03T08:09:30;101663.16;;;10.79;49.14
34237;BME280;20501;45.956;13.632;2023-02-03T08:11:55;101654.34;;;10.40;49.99
34237;BME280;20501;45.956;13.632;2023-02-03T08:14:21;101668.09;;;10.61;49.87
34237;BME280;20501;45.956;13.632;2023-02-03T08:16:46;101666.53;;;10.94;49.49
34237;BME280;20501;45.956;13.632;2023-02-03T08:19:12;101673.16;;;10.03;51.70
34237;BME280;20501;45.956;13.632;2023-02-03T08:21:37;101663.69;;;9.58;52.13
34237;BME280;20501;45.956;13.632;2023-02-03T08:24:03;101655.16;;;10.03;51.52
34237;BME280;20501;45.956;13.632;2023-02-03T08:26:29;101664.97;;;10.55;49.17
34237;BME280;20501;45.956;13.632;2023-02-03T08:28:54;101674.19;;;10.76;50.19
34237;BME280;20501;45.956;13.632;2023-02-03T08:31:20;101673.22;;;10.27;49.25
34237;BME280;20501;45.956;13.632;2023-02-03T08:33:45;101663.84;;;10.46;50.55
34237;BME280;20501;45.956;13.632;2023-02-03T08:36:11;101661.94;;;10.59;50.27
34237;BME280;20501;45.956;13.632;2023-02-03T08:38:38;101646.91;;;10.18;49.46
34237;BME280;20501;45.956;13.632;2023-02-03T08:41:12;101650.53;;;10.43;50.07
34237;BME280;20501;45.956;13.632;2023-02-03T08:43:38;101656.03;;;10.54;50.96
34237;BME280;20501;45.956;13.632;2023-02-03T08:46:05;101648.31;;;10.61;50.52
34237;BME280;20501;45.956;13.632;2023-02-03T08:48:31;101649.41;;;9.18;51.77
34237;BME280;20501;45.956;13.632;2023-02-03T08:50:57;101658.38;;;7.64;56.00
34237;BME280;20501;45.956;13.632;2023-02-03T08:53:23;101659.28;;;8.35;56.06
34237;BME280;20501;45.956;13.632;2023-02-03T08:55:48;101662.41;;;9.77;53.19
34237;BME280;20501;45.956;13.632;2023-02-03T08:58:14;101663.09;;;10.31;51.21
34237;BME280;20501;45.956;13.632;2023-02-03T09:00:40;101667.25;;;9.98;51.01
34237;BME280;20501;45.956;13.632;2023-02-03T09:03:06;101661.00;;;9.71;51.84
34237;BME280;20501;45.956;13.632;2023-02-03T09:05:32;101652.22;;;10.06;51.58
34237;BME280;20501;45.956;13.632;2023-02-03T09:07:57;101657.78;;;10.29;51.46
34237;BME280;20501;45.956;13.632;2023-02-03T09:10:25;101655.59;;;10.47;50.92
34237;BME280;20501;45.956;13.632;2023-02-03T09:12:51;101662.38;;;10.90;50.20
34237;BME280;20501;45.956;13.632;2023-02-03T09:15:16;101658.03;;;10.63;48.86
34237;BME280;20501;45.956;13.632;2023-02-03T09:17:42;101673.91;;;9.40;52.00
34237;BME280;20501;45.956;13.632;2023-02-03T09:20:08;101685.69;;;9.78;50.59
34237;BME280;20501;45.956;13.632;2023-02-03T09:22:33;101678.31;;;9.28;51.47
34237;BME280;20501;45.956;13.632;2023-02-03T09:24:59;101686.19;;;10.35;50.54
34237;BME280;20501;45.956;13.632;2023-02-03T09:27:25;101692.25;;;10.76;50.24
34237;BME280;20501;45.956;13.632;2023-02-03T09:29:50;101682.13;;;11.15;49.67
34237;BME280;20501;45.956;13.632;2023-02-03T09:32:16;101683.38;;;11.69;48.23
34237;BME280;20501;45.956;13.632;2023-02-03T09:34:41;101678.16;;;11.43;48.42
34237;BME280;20501;45.956;13.632;2023-02-03T09:37:07;101687.25;;;11.42;47.15
34237;BME280;20501;45.956;13.632;2023-02-03T09:39:33;101680.41;;;10.65;49.04
34237;BME280;20501;45.956;13.632;2023-02-03T09:42:32;101684.56;;;10.82;48.87
34237;BME280;20501;45.956;13.632;2023-02-03T09:45:23;101698.97;;;11.19;48.86
34237;BME280;20501;45.956;13.632;2023-02-03T09:47:51;101701.63;;;10.83;50.00
34237;BME280;20501;45.956;13.632;2023-02-03T09:50:22;101706.03;;;10.60;48.90
34237;BME280;20501;45.956;13.632;2023-02-03T09:52:49;101708.25;;;10.16;50.12
34237;BME280;20501;45.956;13.632;2023-02-03T10:00:31;101697.09;;;11.43;48.46
34237;BME280;20501;45.956;13.632;2023-02-03T10:03:04;101698.59;;;11.23;48.39
34237;BME280;20501;45.956;13.632;2023-02-03T10:05:37;101697.06;;;10.09;50.63
34237;BME280;20501;45.956;13.632;2023-02-03T10:18:47;101655.97;;;11.27;48.45
34237;BME280;20501;45.956;13.632;2023-02-03T10:21:34;101654.34;;;11.71;49.06
34237;BME280;20501;45.956;13.632;2023-02-03T10:24:03;101637.75;;;12.10;48.13
34237;BME280;20501;45.956;13.632;2023-02-03T10:26:34;101633.56;;;12.29;46.36
34237;BME280;20501;45.956;13.632;2023-02-03T10:29:12;101629.75;;;12.08;47.49
34237;BME280;20501;45.956;13.632;2023-02-03T10:31:41;101635.41;;;11.71;47.69
34237;BME280;20501;45.956;13.632;2023-02-03T10:34:11;101637.50;;;12.02;46.92
34237;BME280;20501;45.956;13.632;2023-02-03T10:39:55;101632.31;;;12.33;47.28
34237;BME280;20501;45.956;13.632;2023-02-03T10:42:21;101628.88;;;12.75;46.28
34237;BME280;20501;45.956;13.632;2023-02-03T10:44:57;101622.84;;;13.04;46.08
34237;BME280;20501;45.956;13.632;2023-02-03T10:47:28;101617.34;;;12.94;47.00
34237;BME280;20501;45.956;13.632;2023-02-03T10:50:03;101599.06;;;12.96;46.99
34237;BME280;20501;45.956;13.632;2023-02-03T10:52:30;101596.13;;;13.20;46.17
34237;BME280;20501;45.956;13.632;2023-02-03T10:54:56;101602.31;;;12.68;47.65
34237;BME280;20501;45.956;13.632;2023-02-03T10:57:24;101600.44;;;12.25;47.76
34237;BME280;20501;45.956;13.632;2023-02-03T11:00:03;101594.69;;;12.18;48.43
34237;BME280;20501;45.956;13.632;2023-02-03T11:02:29;101590.50;;;12.03;49.43
34237;BME280;20501;45.956;13.632;2023-02-03T11:05:19;101580.94;;;11.18;51.65
34237;BME280;20501;45.956;13.632;2023-02-03T11:07:46;101581.81;;;11.18;52.32
34237;BME280;20501;45.956;13.632;2023-02-03T11:10:33;101573.81;;;11.05;53.03
34237;BME280;20501;45.956;13.632;2023-02-03T11:15:51;101551.19;;;11.97;50.53
34237;BME280;20501;45.956;13.632;2023-02-03T11:21:07;101558.50;;;11.40;52.18
34237;BME280;20501;45.956;13.632;2023-02-03T11:23:33;101550.75;;;11.69;51.54
34237;BME280;20501;45.956;13.632;2023-02-03T11:26:14;101546.69;;;11.98;50.70
34237;BME280;20501;45.956;13.632;2023-02-03T11:28:45;101540.31;;;11.65;51.92
34237;BME280;20501;45.956;13.632;2023-02-03T11:31:32;101540.28;;;11.42;52.83
34237;BME280;20501;45.956;13.632;2023-02-03T11:34:36;101526.47;;;11.90;50.62
34237;BME280;20501;45.956;13.632;2023-02-03T11:37:26;101527.50;;;11.55;51.97
34237;BME280;20501;45.956;13.632;2023-02-03T11:40:13;101521.06;;;11.79;52.00
34237;BME280;20501;45.956;13.632;2023-02-03T11:45:24;101509.16;;;11.70;51.39
34237;BME280;20501;45.956;13.632;2023-02-03T11:47:57;101509.03;;;11.72;52.13
34237;BME280;20501;45.956;13.632;2023-02-03T11:56:18;101509.84;;;12.06;51.09
34237;BME280;20501;45.956;13.632;2023-02-03T12:12:39;101467.81;;;11.68;52.15
34237;BME280;20501;45.956;13.632;2023-02-03T12:15:26;101461.09;;;11.17;52.64
34237;BME280;20501;45.956;13.632;2023-02-03T12:23:46;101445.22;;;11.35;54.82
34237;BME280;20501;45.956;13.632;2023-02-03T12:34:18;101436.97;;;11.48;54.00
34237;BME280;20501;45.956;13.632;2023-02-03T12:36:51;101429.25;;;11.21;54.66
34237;BME280;20501;45.956;13.632;2023-02-03T12:42:31;101444.72;;;11.07;56.43
34237;BME280;20501;45.956;13.632;2023-02-03T12:45:18;101442.91;;;11.08;55.31
34237;BME280;20501;45.956;13.632;2023-02-03T12:47:46;101442.22;;;11.61;52.88
34237;BME280;20501;45.956;13.632;2023-02-03T12:52:58;101420.72;;;11.48;53.58
34237;BME280;20501;45.956;13.632;2023-02-03T12:55:39;101408.84;;;11.83;52.26
34237;BME280;20501;45.956;13.632;2023-02-03T12:58:29;101402.81;;;11.24;55.37
34237;BME280;20501;45.956;13.632;2023-02-03T13:06:10;101372.00;;;10.93;56.83
34237;BME280;20501;45.956;13.632;2023-02-03T13:08:41;101357.50;;;10.71;57.64
34237;BME280;20501;45.956;13.632;2023-02-03T13:11:18;101379.84;;;10.62;57.55
34237;BME280;20501;45.956;13.632;2023-02-03T13:13:53;101366.19;;;11.20;55.07
34237;BME280;20501;45.956;13.632;2023-02-03T13:16:28;101349.84;;;10.88;56.93
34237;BME280;20501;45.956;13.632;2023-02-03T13:19:04;101342.34;;;10.91;57.22
34237;BME280;20501;45.956;13.632;2023-02-03T13:21:31;101337.31;;;10.64;58.24
34237;BME280;20501;45.956;13.632;2023-02-03T13:23:57;101336.25;;;10.66;58.20
34237;BME280;20501;45.956;13.632;2023-02-03T13:32:39;101330.06;;;11.21;55.54
34237;BME280;20501;45.956;13.632;2023-02-03T13:38:08;101341.00;;;11.08;57.14
34237;BME280;20501;45.956;13.632;2023-02-03T13:43:25;101336.28;;;11.33;55.25
34237;BME280;20501;45.956;13.632;2023-02-03T13:45:52;101327.81;;;11.70;54.05
34237;BME280;20501;45.956;13.632;2023-02-03T13:48:38;101320.28;;;11.41;56.12
34237;BME280;20501;45.956;13.632;2023-02-03T13:51:17;101318.88;;;11.58;54.66
34237;BME280;20501;45.956;13.632;2023-02-03T13:53:45;101323.72;;;11.43;55.44
34237;BME280;20501;45.956;13.632;2023-02-03T13:56:19;101320.34;;;11.63;54.55
34237;BME280;20501;45.956;13.632;2023-02-03T14:01:38;101319.34;;;11.64;54.11
34237;BME280;20501;45.956;13.632;2023-02-03T14:04:07;101316.72;;;11.41;57.08
34237;BME280;20501;45.956;13.632;2023-02-03T14:12:20;101324.41;;;11.57;55.26
34237;BME280;20501;45.956;13.632;2023-02-03T14:19:58;101301.22;;;11.43;57.07
34237;BME280;20501;45.956;13.632;2023-02-03T14:22:24;101300.94;;;11.46;56.19
34237;BME280;20501;45.956;13.632;2023-02-03T14:24:53;101294.59;;;11.68;54.72
34237;BME280;20501;45.956;13.632;2023-02-03T14:27:24;101297.38;;;11.78;54.26
34237;BME280;20501;45.956;13.632;2023-02-03T14:30:13;101287.25;;;11.26;57.69
34237;BME280;20501;45.956;13.632;2023-02-03T14:32:47;101283.03;;;11.66;55.16
34237;BME280;20501;45.956;13.632;2023-02-03T14:35:18;101278.28;;;11.58;55.69
34237;BME280;20501;45.956;13.632;2023-02-03T14:38:12;101266.50;;;11.48;56.58
34237;BME280;20501;45.956;13.632;2023-02-03T14:43:38;101259.34;;;11.58;56.33
34237;BME280;20501;45.956;13.632;2023-02-03T14:49:16;101254.88;;;11.90;53.62
34237;BME280;20501;45.956;13.632;2023-02-03T15:00:32;101255.47;;;11.40;56.89
34237;BME280;20501;45.956;13.632;2023-02-03T15:05:53;101252.78;;;11.40;57.54
34237;BME280;20501;45.956;13.632;2023-02-03T15:08:52;101258.44;;;11.04;58.79
34237;BME280;20501;45.956;13.632;2023-02-03T15:13:55;101264.63;;;10.49;61.07